Hillsboro, Mississippi
Current Conditions -  °F | °C
As of 10:54 AM on Friday 24 Oct 2014 (Local Time) from KJAN Reporting Station
Few Clouds Few Clouds  
Wind Chill: 66°   Ceiling: Unl
Heat Index: 66°   Visibility: 10mi
Dew Point: 49°   Wind: 7mph
Humidity: 54%   Direction: 330°NNW
Pressure: 30.15"   Gusts: NA
Location:  32.46°N, 89.51°W
Report Text: KJAN 241554Z 33006KT 10SM FEW250 19/09 A3015 RMK AO2 SLP208 T01890094
Loading
Personal Weather Stations






























Interactive Weather Map
Tropical Storm Tracking
New forecast layout! Learn more

10-Day Weather Forecast

Advertisements
Track Severe Weather on mobile